sensor_id;sensor_type;location;lat;lon;timestamp;pressure;altitude;pressure_sealevel;temperature;humidity
72892;BME280;61032;50.782;6.818;2023-04-05T00:00:05;101258.53;;;4.25;58.54
72892;BME280;61032;50.782;6.818;2023-04-05T00:01:12;101265.88;;;4.25;58.47
72892;BME280;61032;50.782;6.818;2023-04-05T00:02:12;101264.53;;;4.32;57.81
72892;BME280;61032;50.782;6.818;2023-04-05T00:03:13;101260.69;;;4.23;57.81
72892;BME280;61032;50.782;6.818;2023-04-05T00:04:13;101258.00;;;4.28;57.70
72892;BME280;61032;50.782;6.818;2023-04-05T00:05:13;101250.66;;;4.34;57.24
72892;BME280;61032;50.782;6.818;2023-04-05T00:06:14;101257.44;;;4.26;57.12
72892;BME280;61032;50.782;6.818;2023-04-05T00:07:15;101251.69;;;4.18;57.34
72892;BME280;61032;50.782;6.818;2023-04-05T00:08:16;101255.50;;;4.17;57.33
72892;BME280;61032;50.782;6.818;2023-04-05T00:09:27;101254.44;;;4.23;57.53
72892;BME280;61032;50.782;6.818;2023-04-05T00:10:29;101256.66;;;4.31;56.54
72892;BME280;61032;50.782;6.818;2023-04-05T00:11:31;101253.38;;;4.29;57.20
72892;BME280;61032;50.782;6.818;2023-04-05T00:12:32;101255.53;;;4.22;57.09
72892;BME280;61032;50.782;6.818;2023-04-05T00:13:32;101248.72;;;4.19;56.93
72892;BME280;61032;50.782;6.818;2023-04-05T00:14:32;101244.63;;;4.06;57.36
72892;BME280;61032;50.782;6.818;2023-04-05T00:15:33;101241.06;;;4.01;56.74
72892;BME280;61032;50.782;6.818;2023-04-05T00:16:34;101242.44;;;4.03;57.25
72892;BME280;61032;50.782;6.818;2023-04-05T00:17:35;101248.66;;;3.99;57.22
72892;BME280;61032;50.782;6.818;2023-04-05T00:18:35;101246.72;;;3.84;57.49
72892;BME280;61032;50.782;6.818;2023-04-05T00:19:37;101243.44;;;3.82;58.09
72892;BME280;61032;50.782;6.818;2023-04-05T00:20:38;101246.16;;;3.77;58.45
72892;BME280;61032;50.782;6.818;2023-04-05T00:21:38;101243.16;;;3.68;58.59
72892;BME280;61032;50.782;6.818;2023-04-05T00:22:40;101246.94;;;3.67;58.58
72892;BME280;61032;50.782;6.818;2023-04-05T00:23:43;101244.25;;;3.72;58.76
72892;BME280;61032;50.782;6.818;2023-04-05T00:24:46;101249.41;;;3.79;58.18
72892;BME280;61032;50.782;6.818;2023-04-05T00:25:46;101246.72;;;3.74;59.10
72892;BME280;61032;50.782;6.818;2023-04-05T00:26:47;101242.63;;;3.71;59.47
72892;BME280;61032;50.782;6.818;2023-04-05T00:27:47;101238.53;;;3.69;60.14
72892;BME280;61032;50.782;6.818;2023-04-05T00:28:47;101240.97;;;3.70;60.18
72892;BME280;61032;50.782;6.818;2023-04-05T00:29:48;101242.88;;;3.75;59.49
72892;BME280;61032;50.782;6.818;2023-04-05T00:30:51;101241.53;;;3.77;60.16
72892;BME280;61032;50.782;6.818;2023-04-05T00:31:51;101246.13;;;3.67;60.40
72892;BME280;61032;50.782;6.818;2023-04-05T00:32:52;101243.44;;;3.72;60.81
72892;BME280;61032;50.782;6.818;2023-04-05T00:33:52;101248.84;;;3.67;60.16
72892;BME280;61032;50.782;6.818;2023-04-05T00:34:52;101241.22;;;3.64;60.11
72892;BME280;61032;50.782;6.818;2023-04-05T00:35:52;101238.50;;;3.64;61.17
72892;BME280;61032;50.782;6.818;2023-04-05T00:36:53;101240.13;;;3.65;61.04
72892;BME280;61032;50.782;6.818;2023-04-05T00:37:54;101235.72;;;3.54;61.42
72892;BME280;61032;50.782;6.818;2023-04-05T00:38:54;101235.72;;;3.54;61.42
72892;BME280;61032;50.782;6.818;2023-04-05T00:39:55;101234.94;;;3.53;61.06
72892;BME280;61032;50.782;6.818;2023-04-05T00:40:56;101233.28;;;3.52;61.32
72892;BME280;61032;50.782;6.818;2023-04-05T00:41:56;101226.75;;;3.48;61.61
72892;BME280;61032;50.782;6.818;2023-04-05T00:42:57;101226.78;;;3.53;61.26
72892;BME280;61032;50.782;6.818;2023-04-05T00:43:57;101236.00;;;3.57;60.72
72892;BME280;61032;50.782;6.818;2023-04-05T00:44:59;101236.00;;;3.52;61.57
72892;BME280;61032;50.782;6.818;2023-04-05T00:46:00;101233.75;;;3.39;62.03
72892;BME280;61032;50.782;6.818;2023-04-05T00:47:02;101230.25;;;3.43;62.17
72892;BME280;61032;50.782;6.818;2023-04-05T00:48:04;101231.66;;;3.51;62.02
72892;BME280;61032;50.782;6.818;2023-04-05T00:49:05;101229.75;;;3.57;61.56
72892;BME280;61032;50.782;6.818;2023-04-05T00:50:06;101229.53;;;3.63;61.49
72892;BME280;61032;50.782;6.818;2023-04-05T00:51:09;101237.44;;;3.70;61.48
72892;BME280;61032;50.782;6.818;2023-04-05T00:52:10;101232.78;;;3.65;60.97
72892;BME280;61032;50.782;6.818;2023-04-05T00:53:12;101234.44;;;3.66;61.32
72892;BME280;61032;50.782;6.818;2023-04-05T00:54:13;101231.19;;;3.69;61.24
72892;BME280;61032;50.782;6.818;2023-04-05T00:55:14;101226.53;;;3.65;60.32
72892;BME280;61032;50.782;6.818;2023-04-05T00:56:15;101229.22;;;3.60;60.81
72892;BME280;61032;50.782;6.818;2023-04-05T00:57:16;101228.41;;;3.59;60.91
72892;BME280;61032;50.782;6.818;2023-04-05T00:58:17;101231.91;;;3.50;61.16
72892;BME280;61032;50.782;6.818;2023-04-05T00:59:21;101229.09;;;3.34;61.86
72892;BME280;61032;50.782;6.818;2023-04-05T01:00:21;101226.41;;;3.39;62.36
72892;BME280;61032;50.782;6.818;2023-04-05T01:01:24;101224.22;;;3.31;62.24
72892;BME280;61032;50.782;6.818;2023-04-05T01:02:31;101227.22;;;3.30;62.82
72892;BME280;61032;50.782;6.818;2023-04-05T01:03:34;101227.25;;;3.40;62.05
72892;BME280;61032;50.782;6.818;2023-04-05T01:04:40;101231.41;;;3.53;61.99
72892;BME280;61032;50.782;6.818;2023-04-05T01:05:46;101232.22;;;3.58;61.37
72892;BME280;61032;50.782;6.818;2023-04-05T01:07:06;101225.16;;;3.62;61.50
72892;BME280;61032;50.782;6.818;2023-04-05T01:08:21;101231.75;;;3.71;61.05
72892;BME280;61032;50.782;6.818;2023-04-05T01:09:52;101227.94;;;3.72;60.82
72892;BME280;61032;50.782;6.818;2023-04-05T01:10:59;101226.81;;;3.68;60.66
72892;BME280;61032;50.782;6.818;2023-04-05T01:12:04;101224.09;;;3.68;60.38
72892;BME280;61032;50.782;6.818;2023-04-05T01:13:06;101224.09;;;3.63;61.30
72892;BME280;61032;50.782;6.818;2023-04-05T01:14:06;101222.69;;;3.56;61.38
72892;BME280;61032;50.782;6.818;2023-04-05T01:15:07;101223.50;;;3.51;61.56
72892;BME280;61032;50.782;6.818;2023-04-05T01:16:08;101219.41;;;3.54;61.94
72892;BME280;61032;50.782;6.818;2023-04-05T01:17:09;101223.78;;;3.60;61.93
72892;BME280;61032;50.782;6.818;2023-04-05T01:18:09;101221.06;;;3.60;61.92
72892;BME280;61032;50.782;6.818;2023-04-05T01:19:10;101219.47;;;3.64;61.63
72892;BME280;61032;50.782;6.818;2023-04-05T01:20:12;101217.59;;;3.69;61.39
72892;BME280;61032;50.782;6.818;2023-04-05T01:24:12;101217.28;;;3.61;61.57
72892;BME280;61032;50.782;6.818;2023-04-05T01:28:51;101217.88;;;3.73;61.44
72892;BME280;61032;50.782;6.818;2023-04-05T01:30:04;101214.09;;;3.84;60.92
72892;BME280;61032;50.782;6.818;2023-04-05T01:31:28;101214.91;;;3.85;60.87
72892;BME280;61032;50.782;6.818;2023-04-05T01:33:10;101211.34;;;3.79;61.08
72892;BME280;61032;50.782;6.818;2023-04-05T01:34:36;101206.44;;;3.71;61.35
72892;BME280;61032;50.782;6.818;2023-04-05T01:35:50;101208.09;;;3.77;61.41
72892;BME280;61032;50.782;6.818;2023-04-05T01:37:01;101207.53;;;3.75;61.24
72892;BME280;61032;50.782;6.818;2023-04-05T01:38:03;101207.00;;;3.73;61.05
72892;BME280;61032;50.782;6.818;2023-04-05T01:39:04;101207.00;;;3.73;61.35
72892;BME280;61032;50.782;6.818;2023-04-05T01:40:07;101206.72;;;3.74;61.61
72892;BME280;61032;50.782;6.818;2023-04-05T01:41:08;101202.38;;;3.78;60.95
72892;BME280;61032;50.782;6.818;2023-04-05T01:42:09;101205.63;;;3.75;61.15
72892;BME280;61032;50.782;6.818;2023-04-05T01:43:13;101203.19;;;3.74;60.93
72892;BME280;61032;50.782;6.818;2023-04-05T01:44:14;101207.00;;;3.73;60.94
72892;BME280;61032;50.782;6.818;2023-04-05T01:45:14;101210.50;;;3.68;60.85
72892;BME280;61032;50.782;6.818;2023-04-05T01:46:15;101215.63;;;3.60;61.10
72892;BME280;61032;50.782;6.818;2023-04-05T01:47:15;101208.28;;;3.55;62.18
72892;BME280;61032;50.782;6.818;2023-04-05T01:48:15;101218.63;;;3.53;62.23
72892;BME280;61032;50.782;6.818;2023-04-05T01:49:16;101209.06;;;3.45;62.85
72892;BME280;61032;50.782;6.818;2023-04-05T01:50:16;101203.38;;;3.57;62.36
72892;BME280;61032;50.782;6.818;2023-04-05T01:51:16;101202.31;;;3.58;61.73
72892;BME280;61032;50.782;6.818;2023-04-05T01:52:16;101199.88;;;3.62;61.44
72892;BME280;61032;50.782;6.818;2023-04-05T01:53:17;101201.00;;;3.66;61.72
72892;BME280;61032;50.782;6.818;2023-04-05T01:54:17;101197.47;;;3.70;61.36
72892;BME280;61032;50.782;6.818;2023-04-05T01:55:18;101202.59;;;3.62;61.68
72892;BME280;61032;50.782;6.818;2023-04-05T01:56:18;101200.69;;;3.62;62.12
72892;BME280;61032;50.782;6.818;2023-04-05T01:57:18;101196.66;;;3.70;61.43
72892;BME280;61032;50.782;6.818;2023-04-05T01:58:18;101194.78;;;3.80;61.62
72892;BME280;61032;50.782;6.818;2023-04-05T01:59:19;101197.50;;;3.80;61.28
72892;BME280;61032;50.782;6.818;2023-04-05T02:00:19;101201.88;;;3.87;61.21
72892;BME280;61032;50.782;6.818;2023-04-05T02:01:20;101197.53;;;3.91;61.25
72892;BME280;61032;50.782;6.818;2023-04-05T02:02:20;101195.91;;;3.90;61.28
72892;BME280;61032;50.782;6.818;2023-04-05T02:03:24;101195.63;;;3.91;60.79
72892;BME280;61032;50.782;6.818;2023-04-05T02:04:24;101187.44;;;3.86;60.97
72892;BME280;61032;50.782;6.818;2023-04-05T02:05:24;101192.34;;;3.84;61.24
72892;BME280;61032;50.782;6.818;2023-04-05T02:06:25;101187.75;;;3.90;61.45
72892;BME280;61032;50.782;6.818;2023-04-05T02:07:25;101194.53;;;3.87;61.25
72892;BME280;61032;50.782;6.818;2023-04-05T02:08:26;101195.38;;;3.93;61.67
72892;BME280;61032;50.782;6.818;2023-04-05T02:09:26;101195.63;;;3.96;61.68
72892;BME280;61032;50.782;6.818;2023-04-05T02:10:26;101195.09;;;3.94;61.57
72892;BME280;61032;50.782;6.818;2023-04-05T02:11:27;101191.78;;;3.82;61.15
72892;BME280;61032;50.782;6.818;2023-04-05T02:12:27;101181.47;;;3.84;61.26
72892;BME280;61032;50.782;6.818;2023-04-05T02:13:27;101198.88;;;3.88;61.19
72892;BME280;61032;50.782;6.818;2023-04-05T02:14:28;101181.22;;;3.91;61.58
72892;BME280;61032;50.782;6.818;2023-04-05T02:15:28;101196.72;;;3.90;61.05
72892;BME280;61032;50.782;6.818;2023-04-05T02:16:29;101193.16;;;3.85;61.35
72892;BME280;61032;50.782;6.818;2023-04-05T02:17:32;101187.16;;;3.83;61.13
72892;BME280;61032;50.782;6.818;2023-04-05T02:18:38;101190.44;;;3.85;61.05
72892;BME280;61032;50.782;6.818;2023-04-05T02:19:38;101183.38;;;3.84;61.70
72892;BME280;61032;50.782;6.818;2023-04-05T02:20:49;101186.91;;;3.84;61.03
72892;BME280;61032;50.782;6.818;2023-04-05T02:21:49;101181.72;;;3.77;61.48
72892;BME280;61032;50.782;6.818;2023-04-05T02:22:50;101186.88;;;3.79;61.55
72892;BME280;61032;50.782;6.818;2023-04-05T02:23:51;101176.56;;;3.81;61.12
72892;BME280;61032;50.782;6.818;2023-04-05T02:24:52;101181.47;;;3.84;61.06
72892;BME280;61032;50.782;6.818;2023-04-05T02:25:52;101177.66;;;3.85;60.66
72892;BME280;61032;50.782;6.818;2023-04-05T02:26:52;101181.75;;;3.88;61.07
72892;BME280;61032;50.782;6.818;2023-04-05T02:27:53;101183.63;;;3.82;61.60
72892;BME280;61032;50.782;6.818;2023-04-05T02:28:53;101184.72;;;3.86;61.50
72892;BME280;61032;50.782;6.818;2023-04-05T02:29:53;101187.44;;;3.81;61.56
72892;BME280;61032;50.782;6.818;2023-04-05T02:30:56;101181.72;;;3.77;61.65
72892;BME280;61032;50.782;6.818;2023-04-05T02:31:56;101189.34;;;3.80;60.98
72892;BME280;61032;50.782;6.818;2023-04-05T02:32:57;101183.91;;;3.86;61.25
72892;BME280;61032;50.782;6.818;2023-04-05T02:33:57;101186.91;;;3.89;60.47
72892;BME280;61032;50.782;6.818;2023-04-05T02:35:00;101180.69;;;3.94;60.72
72892;BME280;61032;50.782;6.818;2023-04-05T02:36:03;101191.56;;;3.94;60.94
72892;BME280;61032;50.782;6.818;2023-04-05T02:37:04;101193.72;;;3.92;60.73
72892;BME280;61032;50.782;6.818;2023-04-05T02:38:04;101191.00;;;3.97;61.05
72892;BME280;61032;50.782;6.818;2023-04-05T02:39:05;101186.34;;;3.82;61.00
72892;BME280;61032;50.782;6.818;2023-04-05T02:40:05;101190.44;;;3.85;60.27
72892;BME280;61032;50.782;6.818;2023-04-05T02:41:09;101191.25;;;3.85;60.18
72892;BME280;61032;50.782;6.818;2023-04-05T02:42:10;101186.09;;;3.84;60.44
72892;BME280;61032;50.782;6.818;2023-04-05T02:43:11;101195.84;;;3.79;60.30
72892;BME280;61032;50.782;6.818;2023-04-05T02:44:12;101194.78;;;3.80;60.28
72892;BME280;61032;50.782;6.818;2023-04-05T02:45:12;101187.94;;;3.68;61.27
72892;BME280;61032;50.782;6.818;2023-04-05T02:46:12;101186.06;;;3.73;61.06
72892;BME280;61032;50.782;6.818;2023-04-05T02:47:12;101193.41;;;3.78;61.48
72892;BME280;61032;50.782;6.818;2023-04-05T02:48:16;101198.59;;;3.85;60.86
72892;BME280;61032;50.782;6.818;2023-04-05T02:49:16;101197.78;;;3.84;60.39
72892;BME280;61032;50.782;6.818;2023-04-05T02:50:17;101187.16;;;3.83;60.77
72892;BME280;61032;50.782;6.818;2023-04-05T02:51:19;101192.84;;;3.71;61.48
72892;BME280;61032;50.782;6.818;2023-04-05T02:52:19;101192.06;;;3.80;61.06
72892;BME280;61032;50.782;6.818;2023-04-05T02:53:20;101194.78;;;3.86;60.92
72892;BME280;61032;50.782;6.818;2023-04-05T02:54:21;101184.97;;;3.79;60.69
72892;BME280;61032;50.782;6.818;2023-04-05T02:55:21;101187.69;;;3.79;61.08
72892;BME280;61032;50.782;6.818;2023-04-05T02:56:22;101183.63;;;3.82;61.04
72892;BME280;61032;50.782;6.818;2023-04-05T02:57:22;101189.63;;;3.84;60.75
72892;BME280;61032;50.782;6.818;2023-04-05T02:58:23;101184.97;;;3.74;61.23
72892;BME280;61032;50.782;6.818;2023-04-05T02:59:23;101184.16;;;3.79;61.90
72892;BME280;61032;50.782;6.818;2023-04-05T03:00:24;101184.72;;;3.81;61.20
72892;BME280;61032;50.782;6.818;2023-04-05T03:01:24;101188.78;;;3.78;61.36
72892;BME280;61032;50.782;6.818;2023-04-05T03:02:24;101188.78;;;3.78;61.28
72892;BME280;61032;50.782;6.818;2023-04-05T03:03:26;101186.63;;;3.80;60.82
72892;BME280;61032;50.782;6.818;2023-04-05T03:04:28;101189.06;;;3.82;60.71
72892;BME280;61032;50.782;6.818;2023-04-05T03:05:28;101184.72;;;3.81;60.24
72892;BME280;61032;50.782;6.818;2023-04-05T03:06:29;101186.63;;;3.80;60.68
72892;BME280;61032;50.782;6.818;2023-04-05T03:07:30;101187.41;;;3.76;61.16
72892;BME280;61032;50.782;6.818;2023-04-05T03:08:32;101187.97;;;3.78;61.40
72892;BME280;61032;50.782;6.818;2023-04-05T03:09:32;101187.69;;;3.74;61.66
72892;BME280;61032;50.782;6.818;2023-04-05T03:10:34;101176.53;;;3.71;62.04
72892;BME280;61032;50.782;6.818;2023-04-05T03:11:35;101176.53;;;3.71;61.91
72892;BME280;61032;50.782;6.818;2023-04-05T03:12:36;101181.44;;;3.69;62.16
72892;BME280;61032;50.782;6.818;2023-04-05T03:13:36;101180.09;;;3.71;62.08
72892;BME280;61032;50.782;6.818;2023-04-05T03:14:37;101174.38;;;3.73;62.03
72892;BME280;61032;50.782;6.818;2023-04-05T03:15:37;101177.09;;;3.73;61.18
72892;BME280;61032;50.782;6.818;2023-04-05T03:16:38;101178.19;;;3.72;62.26
72892;BME280;61032;50.782;6.818;2023-04-05T03:17:38;101179.53;;;3.74;61.19
72892;BME280;61032;50.782;6.818;2023-04-05T03:18:39;101177.91;;;3.73;61.39
72892;BME280;61032;50.782;6.818;2023-04-05T03:19:39;101179.00;;;3.72;61.06
72892;BME280;61032;50.782;6.818;2023-04-05T03:20:39;101175.97;;;3.64;61.63
72892;BME280;61032;50.782;6.818;2023-04-05T03:21:40;101176.53;;;3.71;62.21
72892;BME280;61032;50.782;6.818;2023-04-05T03:22:42;101169.75;;;3.73;62.27
72892;BME280;61032;50.782;6.818;2023-04-05T03:23:43;101170.81;;;3.77;61.98
72892;BME280;61032;50.782;6.818;2023-04-05T03:24:45;101174.66;;;3.82;61.71
72892;BME280;61032;50.782;6.818;2023-04-05T03:25:46;101174.38;;;3.83;61.68
72892;BME280;61032;50.782;6.818;2023-04-05T03:26:47;101172.47;;;3.78;62.40
72892;BME280;61032;50.782;6.818;2023-04-05T03:27:48;101173.28;;;3.74;62.25
72892;BME280;61032;50.782;6.818;2023-04-05T03:28:48;101168.66;;;3.69;62.44
72892;BME280;61032;50.782;6.818;2023-04-05T03:29:48;101170.56;;;3.74;62.04
72892;BME280;61032;50.782;6.818;2023-04-05T03:30:49;101165.66;;;3.76;62.27
72892;BME280;61032;50.782;6.818;2023-04-05T03:31:50;101165.94;;;3.79;62.27
72892;BME280;61032;50.782;6.818;2023-04-05T03:32:50;101172.47;;;3.78;61.99
72892;BME280;61032;50.782;6.818;2023-04-05T03:33:51;101168.38;;;3.76;61.86
72892;BME280;61032;50.782;6.818;2023-04-05T03:34:51;101174.38;;;3.78;61.85
72892;BME280;61032;50.782;6.818;2023-04-05T03:35:51;101168.38;;;3.76;61.68
72892;BME280;61032;50.782;6.818;2023-04-05T03:36:52;101169.75;;;3.73;61.31
72892;BME280;61032;50.782;6.818;2023-04-05T03:37:52;101173.81;;;3.71;61.47
72892;BME280;61032;50.782;6.818;2023-04-05T03:38:53;101177.38;;;3.71;61.65
72892;BME280;61032;50.782;6.818;2023-04-05T03:39:55;101174.09;;;3.69;61.69
72892;BME280;61032;50.782;6.818;2023-04-05T03:40:55;101178.72;;;3.69;61.57
72892;BME280;61032;50.782;6.818;2023-04-05T03:41:55;101176.00;;;3.69;61.68
72892;BME280;61032;50.782;6.818;2023-04-05T03:42:56;101176.50;;;3.61;62.02
72892;BME280;61032;50.782;6.818;2023-04-05T03:43:56;101173.22;;;3.59;61.74
72892;BME280;61032;50.782;6.818;2023-04-05T03:44:56;101177.06;;;3.63;61.65
72892;BME280;61032;50.782;6.818;2023-04-05T03:45:57;101178.41;;;3.60;61.79
72892;BME280;61032;50.782;6.818;2023-04-05T03:46:57;101172.16;;;3.65;61.50
72892;BME280;61032;50.782;6.818;2023-04-05T03:47:57;101170.53;;;3.64;61.33
72892;BME280;61032;50.782;6.818;2023-04-05T03:48:59;101168.91;;;3.68;61.06
72892;BME280;61032;50.782;6.818;2023-04-05T03:49:59;101172.44;;;3.68;61.54
72892;BME280;61032;50.782;6.818;2023-04-05T03:51:01;101174.91;;;3.70;61.21
72892;BME280;61032;50.782;6.818;2023-04-05T03:52:02;101174.84;;;3.50;61.10
72892;BME280;61032;50.782;6.818;2023-04-05T03:53:02;101169.34;;;3.39;61.56
72892;BME280;61032;50.782;6.818;2023-04-05T03:54:02;101161.47;;;3.38;62.13
72892;BME280;61032;50.782;6.818;2023-04-05T03:55:03;101168.53;;;3.39;61.74
72892;BME280;61032;50.782;6.818;2023-04-05T03:56:04;101174.22;;;3.37;62.39
72892;BME280;61032;50.782;6.818;2023-04-05T03:57:05;101164.75;;;3.40;62.17
72892;BME280;61032;50.782;6.818;2023-04-05T03:58:05;101166.63;;;3.34;62.02
72892;BME280;61032;50.782;6.818;2023-04-05T03:59:07;101165.47;;;3.20;62.87
72892;BME280;61032;50.782;6.818;2023-04-05T04:00:08;101165.72;;;3.19;62.74
72892;BME280;61032;50.782;6.818;2023-04-05T04:01:16;101169.84;;;3.26;62.78
72892;BME280;61032;50.782;6.818;2023-04-05T04:02:17;101165.53;;;3.30;62.80
72892;BME280;61032;50.782;6.818;2023-04-05T04:03:17;101167.13;;;3.26;62.97
72892;BME280;61032;50.782;6.818;2023-04-05T04:04:18;101165.47;;;3.20;62.78
72892;BME280;61032;50.782;6.818;2023-04-05T04:05:18;101164.69;;;3.25;62.96
72892;BME280;61032;50.782;6.818;2023-04-05T04:06:19;101160.09;;;3.30;62.49
72892;BME280;61032;50.782;6.818;2023-04-05T04:07:19;101148.41;;;3.30;62.39
72892;BME280;61032;50.782;6.818;2023-04-05T04:08:20;101155.72;;;3.24;62.26
72892;BME280;61032;50.782;6.818;2023-04-05T04:09:20;101157.31;;;3.20;62.77
72892;BME280;61032;50.782;6.818;2023-04-05T04:10:22;101157.84;;;3.17;62.78
72892;BME280;61032;50.782;6.818;2023-04-05T04:11:22;101155.13;;;3.17;62.66
72892;BME280;61032;50.782;6.818;2023-04-05T04:12:22;101158.09;;;3.16;62.91
72892;BME280;61032;50.782;6.818;2023-04-05T04:13:23;101156.47;;;3.15;62.88
72892;BME280;61032;50.782;6.818;2023-04-05T04:14:23;101153.50;;;3.16;63.41
72892;BME280;61032;50.782;6.818;2023-04-05T04:15:23;101156.22;;;3.16;62.84
72892;BME280;61032;50.782;6.818;2023-04-05T04:16:24;101154.31;;;3.17;62.71
72892;BME280;61032;50.782;6.818;2023-04-05T04:17:26;101156.47;;;3.15;62.97
72892;BME280;61032;50.782;6.818;2023-04-05T04:18:27;101155.13;;;3.17;63.15
72892;BME280;61032;50.782;6.818;2023-04-05T04:19:27;101151.34;;;3.18;62.71
72892;BME280;61032;50.782;6.818;2023-04-05T04:20:27;101160.53;;;3.07;63.13
72892;BME280;61032;50.782;6.818;2023-04-05T04:21:27;101164.59;;;3.04;63.54
72892;BME280;61032;50.782;6.818;2023-04-05T04:22:28;101156.44;;;3.04;63.28
72892;BME280;61032;50.782;6.818;2023-04-05T04:23:37;101153.47;;;3.06;63.78
72892;BME280;61032;50.782;6.818;2023-04-05T04:24:38;101162.16;;;3.08;63.02
72892;BME280;61032;50.782;6.818;2023-04-05T04:25:39;101163.81;;;3.09;63.30
72892;BME280;61032;50.782;6.818;2023-04-05T04:26:46;101156.72;;;3.08;63.22
72892;BME280;61032;50.782;6.818;2023-04-05T04:27:46;101159.41;;;3.03;63.29
72892;BME280;61032;50.782;6.818;2023-04-05T04:28:47;101166.78;;;3.07;63.19
72892;BME280;61032;50.782;6.818;2023-04-05T04:29:47;101173.59;;;3.10;63.09
72892;BME280;61032;50.782;6.818;2023-04-05T04:30:48;101165.19;;;3.17;62.68
72892;BME280;61032;50.782;6.818;2023-04-05T04:31:48;101169.25;;;3.14;62.53
72892;BME280;61032;50.782;6.818;2023-04-05T04:32:49;101172.25;;;3.18;62.14
72892;BME280;61032;50.782;6.818;2023-04-05T04:33:54;101165.44;;;3.10;62.41
72892;BME280;61032;50.782;6.818;2023-04-05T04:34:54;101161.59;;;3.06;62.89
72892;BME280;61032;50.782;6.818;2023-04-05T04:35:54;101165.44;;;3.10;62.95
72892;BME280;61032;50.782;6.818;2023-04-05T04:36:55;101157.56;;;3.08;63.02
72892;BME280;61032;50.782;6.818;2023-04-05T04:38:02;101158.34;;;3.04;63.23
72892;BME280;61032;50.782;6.818;2023-04-05T04:39:02;101166.41;;;2.94;63.09
72892;BME280;61032;50.782;6.818;2023-04-05T04:40:06;101156.63;;;2.88;63.26
72892;BME280;61032;50.782;6.818;2023-04-05T04:41:09;101159.84;;;2.85;63.85
72892;BME280;61032;50.782;6.818;2023-04-05T04:42:10;101159.59;;;2.86;63.23
72892;BME280;61032;50.782;6.818;2023-04-05T04:43:14;101161.25;;;2.87;63.11
72892;BME280;61032;50.782;6.818;2023-04-05T04:44:17;101156.63;;;2.88;63.06
72892;BME280;61032;50.782;6.818;2023-04-05T04:45:28;101159.91;;;2.95;63.02
72892;BME280;61032;50.782;6.818;2023-04-05T04:46:33;101165.06;;;2.96;62.98
72892;BME280;61032;50.782;6.818;2023-04-05T04:47:42;101164.25;;;2.91;62.50
72892;BME280;61032;50.782;6.818;2023-04-05T04:48:42;101160.94;;;2.84;63.21
72892;BME280;61032;50.782;6.818;2023-04-05T04:49:42;101166.06;;;2.80;62.91
72892;BME280;61032;50.782;6.818;2023-04-05T04:50:46;101167.97;;;2.80;63.49
72892;BME280;61032;50.782;6.818;2023-04-05T04:51:47;101165.22;;;2.74;63.57
72892;BME280;61032;50.782;6.818;2023-04-05T04:52:47;101168.50;;;2.76;63.65
72892;BME280;61032;50.782;6.818;2023-04-05T04:53:48;101166.34;;;2.79;63.71
72892;BME280;61032;50.782;6.818;2023-04-05T04:54:48;101164.16;;;2.81;63.73
72892;BME280;61032;50.782;6.818;2023-04-05T04:55:49;101163.91;;;2.82;63.28
72892;BME280;61032;50.782;6.818;2023-04-05T04:56:50;101168.50;;;2.76;63.71
72892;BME280;61032;50.782;6.818;2023-04-05T04:57:51;101168.75;;;2.75;63.60
72892;BME280;61032;50.782;6.818;2023-04-05T04:58:54;101166.59;;;2.77;63.95
72892;BME280;61032;50.782;6.818;2023-04-05T04:59:55;101163.09;;;2.82;63.75
72892;BME280;61032;50.782;6.818;2023-04-05T05:00:55;101159.56;;;2.81;63.48
72892;BME280;61032;50.782;6.818;2023-04-05T05:01:58;101166.59;;;2.77;63.41
72892;BME280;61032;50.782;6.818;2023-04-05T05:02:58;101161.69;;;2.74;63.62
72892;BME280;61032;50.782;6.818;2023-04-05T05:03:58;101163.56;;;2.68;63.76
72892;BME280;61032;50.782;6.818;2023-04-05T05:04:59;101167.06;;;2.64;64.47
72892;BME280;61032;50.782;6.818;2023-04-05T05:05:59;101167.88;;;2.64;64.25
72892;BME280;61032;50.782;6.818;2023-04-05T05:07:00;101167.09;;;2.69;64.13
72892;BME280;61032;50.782;6.818;2023-04-05T05:08:01;101165.78;;;2.76;63.95
72892;BME280;61032;50.782;6.818;2023-04-05T05:09:01;101172.84;;;2.78;63.84
72892;BME280;61032;50.782;6.818;2023-04-05T05:10:02;101165.25;;;2.80;63.49
72892;BME280;61032;50.782;6.818;2023-04-05T05:11:05;101170.13;;;2.78;63.48
72892;BME280;61032;50.782;6.818;2023-04-05T05:12:06;101168.75;;;2.75;63.37
72892;BME280;61032;50.782;6.818;2023-04-05T05:13:06;101163.63;;;2.79;63.15
72892;BME280;61032;50.782;6.818;2023-04-05T05:14:07;101161.47;;;2.81;63.55
72892;BME280;61032;50.782;6.818;2023-04-05T05:15:09;101170.72;;;2.85;63.69
72892;BME280;61032;50.782;6.818;2023-04-05T05:16:09;101169.66;;;2.86;63.66
72892;BME280;61032;50.782;6.818;2023-04-05T05:17:10;101163.69;;;2.89;63.20
72892;BME280;61032;50.782;6.818;2023-04-05T05:18:10;101163.91;;;2.82;63.23
72892;BME280;61032;50.782;6.818;2023-04-05T05:19:11;101170.41;;;2.81;63.19
72892;BME280;61032;50.782;6.818;2023-04-05T05:20:11;101167.72;;;2.81;63.23
72892;BME280;61032;50.782;6.818;2023-04-05T05:21:12;101164.72;;;2.83;63.82
72892;BME280;61032;50.782;6.818;2023-04-05T05:22:12;101167.38;;;2.72;63.48
72892;BME280;61032;50.782;6.818;2023-04-05T05:23:12;101171.38;;;2.60;64.15
72892;BME280;61032;50.782;6.818;2023-04-05T05:24:13;101169.13;;;2.52;64.49
72892;BME280;61032;50.782;6.818;2023-04-05T05:25:13;101165.88;;;2.55;64.55
72892;BME280;61032;50.782;6.818;2023-04-05T05:26:13;101165.94;;;2.60;63.83
72892;BME280;61032;50.782;6.818;2023-04-05T05:27:14;101167.88;;;2.64;63.87
72892;BME280;61032;50.782;6.818;2023-04-05T05:28:14;101164.28;;;2.59;64.21
72892;BME280;61032;50.782;6.818;2023-04-05T05:29:15;101163.53;;;2.63;63.88
72892;BME280;61032;50.782;6.818;2023-04-05T05:30:17;101166.78;;;2.65;64.04
72892;BME280;61032;50.782;6.818;2023-04-05T05:31:17;101164.63;;;2.67;63.71
72892;BME280;61032;50.782;6.818;2023-04-05T05:32:18;101166.78;;;2.65;63.93
72892;BME280;61032;50.782;6.818;2023-04-05T05:33:18;101166.03;;;2.70;63.74